sensor_id;sensor_type;location;lat;lon;timestamp;pressure;altitude;pressure_sealevel;temperature;humidity
51829;BME280;37881;48.024;8.774;2024-01-16T00:00:29;93233.97;;;-5.80;100.00
51829;BME280;37881;48.024;8.774;2024-01-16T00:02:56;93234.22;;;-5.73;100.00
51829;BME280;37881;48.024;8.774;2024-01-16T00:05:23;93234.69;;;-5.71;100.00
51829;BME280;37881;48.024;8.774;2024-01-16T00:07:50;93236.91;;;-5.73;100.00
51829;BME280;37881;48.024;8.774;2024-01-16T00:10:17;93242.22;;;-5.85;100.00
51829;BME280;37881;48.024;8.774;2024-01-16T00:12:43;93236.41;;;-5.99;100.00
51829;BME280;37881;48.024;8.774;2024-01-16T00:15:10;93245.78;;;-6.14;100.00
51829;BME280;37881;48.024;8.774;2024-01-16T00:17:37;93234.44;;;-6.11;100.00
51829;BME280;37881;48.024;8.774;2024-01-16T00:20:04;93226.25;;;-6.48;100.00
51829;BME280;37881;48.024;8.774;2024-01-16T00:22:32;93230.50;;;-6.47;100.00
51829;BME280;37881;48.024;8.774;2024-01-16T00:24:58;93228.41;;;-6.41;100.00
51829;BME280;37881;48.024;8.774;2024-01-16T00:27:25;93231.41;;;-6.43;100.00
51829;BME280;37881;48.024;8.774;2024-01-16T00:29:52;93232.31;;;-6.39;100.00
51829;BME280;37881;48.024;8.774;2024-01-16T00:32:19;93231.41;;;-6.43;100.00
51829;BME280;37881;48.024;8.774;2024-01-16T00:34:46;93235.91;;;-6.56;100.00
51829;BME280;37881;48.024;8.774;2024-01-16T00:37:13;93234.97;;;-6.60;100.00
51829;BME280;37881;48.024;8.774;2024-01-16T00:39:40;93241.22;;;-6.56;100.00
51829;BME280;37881;48.024;8.774;2024-01-16T00:42:07;93231.06;;;-6.63;100.00
51829;BME280;37881;48.024;8.774;2024-01-16T00:44:34;93245.25;;;-6.71;100.00
51829;BME280;37881;48.024;8.774;2024-01-16T00:47:01;93243.19;;;-6.95;100.00
51829;BME280;37881;48.024;8.774;2024-01-16T00:49:28;93242.66;;;-6.88;100.00
51829;BME280;37881;48.024;8.774;2024-01-16T00:51:56;93245.22;;;-6.92;100.00
51829;BME280;37881;48.024;8.774;2024-01-16T00:54:22;93254.03;;;-7.00;100.00
51829;BME280;37881;48.024;8.774;2024-01-16T00:56:49;93255.31;;;-7.06;100.00
51829;BME280;37881;48.024;8.774;2024-01-16T00:59:16;93262.97;;;-7.05;100.00
51829;BME280;37881;48.024;8.774;2024-01-16T01:01:43;93252.19;;;-7.08;100.00
51829;BME280;37881;48.024;8.774;2024-01-16T01:04:10;93244.00;;;-7.03;100.00
51829;BME280;37881;48.024;8.774;2024-01-16T01:06:37;93252.06;;;-7.12;100.00
51829;BME280;37881;48.024;8.774;2024-01-16T01:09:03;93248.69;;;-7.30;100.00
51829;BME280;37881;48.024;8.774;2024-01-16T01:11:30;93256.53;;;-7.33;100.00
51829;BME280;37881;48.024;8.774;2024-01-16T01:13:57;93251.34;;;-7.38;100.00
51829;BME280;37881;48.024;8.774;2024-01-16T01:16:24;93246.38;;;-7.40;100.00
51829;BME280;37881;48.024;8.774;2024-01-16T01:18:50;93258.75;;;-7.44;100.00
51829;BME280;37881;48.024;8.774;2024-01-16T01:21:17;93261.28;;;-7.48;100.00
51829;BME280;37881;48.024;8.774;2024-01-16T01:23:44;93260.50;;;-7.48;100.00
51829;BME280;37881;48.024;8.774;2024-01-16T01:26:11;93262.09;;;-7.65;100.00
51829;BME280;37881;48.024;8.774;2024-01-16T01:28:40;93267.50;;;-8.08;100.00
51829;BME280;37881;48.024;8.774;2024-01-16T01:31:09;93276.25;;;-8.08;100.00
51829;BME280;37881;48.024;8.774;2024-01-16T01:33:36;93274.72;;;-8.09;100.00
51829;BME280;37881;48.024;8.774;2024-01-16T01:36:03;93278.94;;;-8.08;100.00
51829;BME280;37881;48.024;8.774;2024-01-16T01:38:30;93278.13;;;-7.99;100.00
51829;BME280;37881;48.024;8.774;2024-01-16T01:40:57;93284.88;;;-8.02;100.00
51829;BME280;37881;48.024;8.774;2024-01-16T01:43:24;93296.63;;;-8.29;100.00
51829;BME280;37881;48.024;8.774;2024-01-16T01:48:30;93306.66;;;-8.26;100.00
51829;BME280;37881;48.024;8.774;2024-01-16T01:50:59;93296.16;;;-8.05;100.00
51829;BME280;37881;48.024;8.774;2024-01-16T01:53:28;93300.84;;;-8.02;100.00
51829;BME280;37881;48.024;8.774;2024-01-16T01:55:56;93301.78;;;-7.98;100.00
51829;BME280;37881;48.024;8.774;2024-01-16T01:58:23;93305.41;;;-7.94;100.00
51829;BME280;37881;48.024;8.774;2024-01-16T02:00:50;93300.84;;;-7.93;100.00
51829;BME280;37881;48.024;8.774;2024-01-16T02:03:17;93300.22;;;-7.99;100.00
51829;BME280;37881;48.024;8.774;2024-01-16T02:05:45;93300.56;;;-8.27;100.00
51829;BME280;37881;48.024;8.774;2024-01-16T02:08:12;93304.94;;;-8.48;100.00
51829;BME280;37881;48.024;8.774;2024-01-16T02:10:42;93301.47;;;-8.40;100.00
51829;BME280;37881;48.024;8.774;2024-01-16T02:13:12;93307.72;;;-8.36;100.00
51829;BME280;37881;48.024;8.774;2024-01-16T02:15:39;93301.00;;;-8.33;100.00
51829;BME280;37881;48.024;8.774;2024-01-16T02:18:07;93313.38;;;-8.29;100.00
51829;BME280;37881;48.024;8.774;2024-01-16T02:20:34;93310.41;;;-8.36;100.00
51829;BME280;37881;48.024;8.774;2024-01-16T02:23:03;93307.56;;;-8.39;100.00
51829;BME280;37881;48.024;8.774;2024-01-16T02:25:30;93309.00;;;-8.51;100.00
51829;BME280;37881;48.024;8.774;2024-01-16T02:27:57;93312.13;;;-8.49;100.00
51829;BME280;37881;48.024;8.774;2024-01-16T02:30:24;93297.09;;;-8.53;100.00
51829;BME280;37881;48.024;8.774;2024-01-16T02:32:51;93297.91;;;-8.53;100.00
51829;BME280;37881;48.024;8.774;2024-01-16T02:35:18;93301.63;;;-8.54;100.00
51829;BME280;37881;48.024;8.774;2024-01-16T02:37:45;93301.50;;;-8.49;100.00
51829;BME280;37881;48.024;8.774;2024-01-16T02:40:11;93306.34;;;-8.51;100.00
51829;BME280;37881;48.024;8.774;2024-01-16T02:42:38;93307.59;;;-8.57;100.00
51829;BME280;37881;48.024;8.774;2024-01-16T02:45:05;93302.34;;;-8.79;100.00
51829;BME280;37881;48.024;8.774;2024-01-16T02:47:33;93305.97;;;-8.75;100.00
51829;BME280;37881;48.024;8.774;2024-01-16T02:50:00;93294.72;;;-8.72;100.00
51829;BME280;37881;48.024;8.774;2024-01-16T02:52:27;93289.88;;;-8.70;100.00
51829;BME280;37881;48.024;8.774;2024-01-16T02:54:53;93295.66;;;-8.77;100.00
51829;BME280;37881;48.024;8.774;2024-01-16T02:57:20;93299.84;;;-8.85;100.00
51829;BME280;37881;48.024;8.774;2024-01-16T02:59:47;93282.47;;;-8.91;100.00
51829;BME280;37881;48.024;8.774;2024-01-16T03:02:14;93292.00;;;-8.90;100.00
51829;BME280;37881;48.024;8.774;2024-01-16T03:04:41;93294.50;;;-8.93;100.00
51829;BME280;37881;48.024;8.774;2024-01-16T03:07:07;93294.66;;;-8.90;100.00
51829;BME280;37881;48.024;8.774;2024-01-16T03:09:34;93301.31;;;-9.18;100.00
51829;BME280;37881;48.024;8.774;2024-01-16T03:12:01;93290.03;;;-9.24;100.00
51829;BME280;37881;48.024;8.774;2024-01-16T03:14:28;93292.84;;;-9.20;100.00
51829;BME280;37881;48.024;8.774;2024-01-16T03:17:03;93297.41;;;-9.12;100.00
51829;BME280;37881;48.024;8.774;2024-01-16T03:19:30;93297.59;;;-9.09;100.00
51829;BME280;37881;48.024;8.774;2024-01-16T03:21:57;93297.59;;;-9.09;100.00
51829;BME280;37881;48.024;8.774;2024-01-16T03:24:24;93292.09;;;-9.12;100.00
51829;BME280;37881;48.024;8.774;2024-01-16T03:26:50;93306.63;;;-9.18;100.00
51829;BME280;37881;48.024;8.774;2024-01-16T03:29:17;93301.91;;;-9.21;100.00
51829;BME280;37881;48.024;8.774;2024-01-16T03:31:44;93305.41;;;-9.12;100.00
51829;BME280;37881;48.024;8.774;2024-01-16T03:34:11;93303.22;;;-9.10;100.00
51829;BME280;37881;48.024;8.774;2024-01-16T03:36:37;93304.91;;;-9.14;100.00
51829;BME280;37881;48.024;8.774;2024-01-16T03:39:04;93311.22;;;-9.41;100.00
51829;BME280;37881;48.024;8.774;2024-01-16T03:41:32;93303.34;;;-9.78;100.00
51829;BME280;37881;48.024;8.774;2024-01-16T03:43:59;93305.16;;;-9.65;100.00
51829;BME280;37881;48.024;8.774;2024-01-16T03:46:25;93306.47;;;-9.53;100.00
51829;BME280;37881;48.024;8.774;2024-01-16T03:48:52;93306.00;;;-9.55;100.00
51829;BME280;37881;48.024;8.774;2024-01-16T03:51:19;93307.81;;;-9.65;100.00
51829;BME280;37881;48.024;8.774;2024-01-16T03:53:46;93299.63;;;-9.77;100.00
51829;BME280;37881;48.024;8.774;2024-01-16T03:56:15;93291.22;;;-9.70;100.00
51829;BME280;37881;48.024;8.774;2024-01-16T03:58:42;93301.56;;;-9.60;100.00
51829;BME280;37881;48.024;8.774;2024-01-16T04:01:09;93294.28;;;-9.54;100.00
51829;BME280;37881;48.024;8.774;2024-01-16T04:03:36;93294.72;;;-9.61;100.00
51829;BME280;37881;48.024;8.774;2024-01-16T04:06:15;93292.97;;;-9.66;100.00
51829;BME280;37881;48.024;8.774;2024-01-16T04:08:42;93287.50;;;-9.69;100.00
51829;BME280;37881;48.024;8.774;2024-01-16T04:11:12;93289.97;;;-9.73;100.00
51829;BME280;37881;48.024;8.774;2024-01-16T04:13:40;93287.13;;;-9.76;100.00
51829;BME280;37881;48.024;8.774;2024-01-16T04:16:07;93290.72;;;-9.72;100.00
51829;BME280;37881;48.024;8.774;2024-01-16T04:18:37;93278.97;;;-9.80;100.00
51829;BME280;37881;48.024;8.774;2024-01-16T04:21:06;93280.66;;;-9.84;100.00
51829;BME280;37881;48.024;8.774;2024-01-16T04:23:33;93288.03;;;-9.81;100.00
51829;BME280;37881;48.024;8.774;2024-01-16T04:26:00;93277.28;;;-9.76;100.00
51829;BME280;37881;48.024;8.774;2024-01-16T04:28:27;93281.69;;;-9.71;100.00
51829;BME280;37881;48.024;8.774;2024-01-16T04:30:53;93286.38;;;-9.68;100.00
51829;BME280;37881;48.024;8.774;2024-01-16T04:33:20;93283.25;;;-9.70;100.00
51829;BME280;37881;48.024;8.774;2024-01-16T04:35:47;93284.22;;;-9.66;100.00
51829;BME280;37881;48.024;8.774;2024-01-16T04:38:14;93274.97;;;-9.69;100.00
51829;BME280;37881;48.024;8.774;2024-01-16T04:40:41;93281.41;;;-9.70;100.00
51829;BME280;37881;48.024;8.774;2024-01-16T04:43:08;93275.16;;;-9.65;100.00
51829;BME280;37881;48.024;8.774;2024-01-16T04:45:34;93266.72;;;-9.67;100.00
51829;BME280;37881;48.024;8.774;2024-01-16T04:48:01;93272.16;;;-9.72;100.00
51829;BME280;37881;48.024;8.774;2024-01-16T04:50:28;93271.66;;;-9.74;100.00
51829;BME280;37881;48.024;8.774;2024-01-16T04:52:59;93264.00;;;-9.76;100.00
51829;BME280;37881;48.024;8.774;2024-01-16T04:55:29;93267.94;;;-9.73;100.00
51829;BME280;37881;48.024;8.774;2024-01-16T04:57:56;93261.19;;;-9.79;100.00
51829;BME280;37881;48.024;8.774;2024-01-16T05:00:23;93263.84;;;-9.79;100.00
51829;BME280;37881;48.024;8.774;2024-01-16T05:02:50;93256.41;;;-9.69;100.00
51829;BME280;37881;48.024;8.774;2024-01-16T05:05:18;93254.78;;;-9.78;100.00
51829;BME280;37881;48.024;8.774;2024-01-16T05:07:45;93259.63;;;-9.80;100.00
51829;BME280;37881;48.024;8.774;2024-01-16T05:10:12;93259.44;;;-9.84;100.00
51829;BME280;37881;48.024;8.774;2024-01-16T05:12:42;93248.41;;;-10.00;100.00
51829;BME280;37881;48.024;8.774;2024-01-16T05:15:09;93249.56;;;-10.15;100.00
51829;BME280;37881;48.024;8.774;2024-01-16T05:17:38;93247.84;;;-10.19;100.00
51829;BME280;37881;48.024;8.774;2024-01-16T05:20:05;93245.53;;;-10.12;100.00
51829;BME280;37881;48.024;8.774;2024-01-16T05:22:32;93243.06;;;-10.09;100.00
51829;BME280;37881;48.024;8.774;2024-01-16T05:24:59;93250.44;;;-10.06;100.00
51829;BME280;37881;48.024;8.774;2024-01-16T05:27:27;93240.53;;;-10.14;100.00
51829;BME280;37881;48.024;8.774;2024-01-16T05:29:54;93232.34;;;-10.03;100.00
51829;BME280;37881;48.024;8.774;2024-01-16T05:32:21;93233.78;;;-9.97;100.00
51829;BME280;37881;48.024;8.774;2024-01-16T05:34:48;93228.19;;;-9.87;100.00
51829;BME280;37881;48.024;8.774;2024-01-16T05:37:15;93224.91;;;-9.84;100.00
51829;BME280;37881;48.024;8.774;2024-01-16T05:39:42;93230.22;;;-9.84;100.00
51829;BME280;37881;48.024;8.774;2024-01-16T05:42:09;93222.41;;;-9.89;100.00
51829;BME280;37881;48.024;8.774;2024-01-16T05:44:36;93226.75;;;-9.93;100.00
51829;BME280;37881;48.024;8.774;2024-01-16T05:47:04;93222.22;;;-9.93;100.00
51829;BME280;37881;48.024;8.774;2024-01-16T05:49:30;93228.94;;;-9.95;100.00
51829;BME280;37881;48.024;8.774;2024-01-16T05:51:57;93239.56;;;-9.95;100.00
51829;BME280;37881;48.024;8.774;2024-01-16T05:54:24;93232.06;;;-9.93;100.00
51829;BME280;37881;48.024;8.774;2024-01-16T05:56:51;93231.78;;;-9.92;100.00
51829;BME280;37881;48.024;8.774;2024-01-16T05:59:18;93220.63;;;-10.02;100.00
51829;BME280;37881;48.024;8.774;2024-01-16T06:01:44;93227.66;;;-9.98;100.00
51829;BME280;37881;48.024;8.774;2024-01-16T06:04:11;93233.16;;;-9.94;100.00
51829;BME280;37881;48.024;8.774;2024-01-16T06:06:40;93233.31;;;-9.91;100.00
51829;BME280;37881;48.024;8.774;2024-01-16T06:09:11;93228.31;;;-9.92;100.00
51829;BME280;37881;48.024;8.774;2024-01-16T06:11:40;93231.72;;;-10.00;100.00
51829;BME280;37881;48.024;8.774;2024-01-16T06:14:08;93229.97;;;-10.05;100.00
51829;BME280;37881;48.024;8.774;2024-01-16T06:16:35;93229.53;;;-9.98;100.00
51829;BME280;37881;48.024;8.774;2024-01-16T06:19:02;93231.41;;;-9.99;100.00
51829;BME280;37881;48.024;8.774;2024-01-16T06:21:29;93230.00;;;-9.96;100.00
51829;BME280;37881;48.024;8.774;2024-01-16T06:23:56;93231.44;;;-9.90;100.00
51829;BME280;37881;48.024;8.774;2024-01-16T06:26:23;93231.34;;;-9.85;100.00
51829;BME280;37881;48.024;8.774;2024-01-16T06:28:50;93231.50;;;-9.81;100.00
51829;BME280;37881;48.024;8.774;2024-01-16T06:31:17;93228.06;;;-9.82;100.00
51829;BME280;37881;48.024;8.774;2024-01-16T06:33:44;93231.03;;;-9.83;100.00
51829;BME280;37881;48.024;8.774;2024-01-16T06:36:11;93227.94;;;-9.77;100.00
51829;BME280;37881;48.024;8.774;2024-01-16T06:38:39;93236.81;;;-9.81;100.00
51829;BME280;37881;48.024;8.774;2024-01-16T06:41:06;93231.81;;;-9.83;100.00
51829;BME280;37881;48.024;8.774;2024-01-16T06:43:33;93229.22;;;-9.97;100.00
51829;BME280;37881;48.024;8.774;2024-01-16T06:46:00;93224.28;;;-9.90;100.00
51829;BME280;37881;48.024;8.774;2024-01-16T06:48:27;93225.06;;;-9.89;100.00
51829;BME280;37881;48.024;8.774;2024-01-16T06:50:54;93246.16;;;-9.84;100.00
51829;BME280;37881;48.024;8.774;2024-01-16T06:53:21;93239.28;;;-9.85;100.00
51829;BME280;37881;48.024;8.774;2024-01-16T06:55:48;93241.81;;;-9.80;100.00
51829;BME280;37881;48.024;8.774;2024-01-16T06:58:15;93244.91;;;-9.87;100.00
51829;BME280;37881;48.024;8.774;2024-01-16T07:00:42;93249.69;;;-9.97;100.00
51829;BME280;37881;48.024;8.774;2024-01-16T07:03:09;93243.75;;;-9.94;100.00
51829;BME280;37881;48.024;8.774;2024-01-16T07:05:36;93227.28;;;-9.82;100.00
51829;BME280;37881;48.024;8.774;2024-01-16T07:08:03;93221.47;;;-9.93;100.00
51829;BME280;37881;48.024;8.774;2024-01-16T07:10:30;93223.00;;;-9.92;100.00
51829;BME280;37881;48.024;8.774;2024-01-16T07:12:58;93213.41;;;-9.79;100.00
51829;BME280;37881;48.024;8.774;2024-01-16T07:15:25;93217.63;;;-9.78;100.00
51829;BME280;37881;48.024;8.774;2024-01-16T07:17:52;93216.56;;;-9.69;100.00
51829;BME280;37881;48.024;8.774;2024-01-16T07:20:19;93211.56;;;-9.70;100.00
51829;BME280;37881;48.024;8.774;2024-01-16T07:22:46;93206.41;;;-9.75;100.00
51829;BME280;37881;48.024;8.774;2024-01-16T07:25:13;93208.13;;;-10.02;100.00
51829;BME280;37881;48.024;8.774;2024-01-16T07:27:39;93204.88;;;-9.99;100.00
51829;BME280;37881;48.024;8.774;2024-01-16T07:30:07;93204.91;;;-9.90;100.00
51829;BME280;37881;48.024;8.774;2024-01-16T07:32:34;93205.47;;;-9.71;100.00
51829;BME280;37881;48.024;8.774;2024-01-16T07:35:02;93204.22;;;-9.73;100.00
51829;BME280;37881;48.024;8.774;2024-01-16T07:37:29;93211.13;;;-9.63;100.00
51829;BME280;37881;48.024;8.774;2024-01-16T07:39:56;93200.25;;;-9.45;100.00
51829;BME280;37881;48.024;8.774;2024-01-16T07:42:23;93205.47;;;-9.31;100.00
51829;BME280;37881;48.024;8.774;2024-01-16T07:44:50;93202.69;;;-9.17;100.00
51829;BME280;37881;48.024;8.774;2024-01-16T07:47:18;93204.25;;;-9.07;100.00
51829;BME280;37881;48.024;8.774;2024-01-16T07:49:44;93197.84;;;-8.97;100.00
51829;BME280;37881;48.024;8.774;2024-01-16T07:52:11;93197.56;;;-8.87;100.00
51829;BME280;37881;48.024;8.774;2024-01-16T07:54:38;93200.84;;;-8.99;100.00
51829;BME280;37881;48.024;8.774;2024-01-16T07:57:05;93202.69;;;-9.08;100.00
51829;BME280;37881;48.024;8.774;2024-01-16T07:59:33;93202.56;;;-9.03;100.00
51829;BME280;37881;48.024;8.774;2024-01-16T08:02:00;93201.78;;;-8.95;100.00
51829;BME280;37881;48.024;8.774;2024-01-16T08:04:26;93201.47;;;-8.85;100.00
51829;BME280;37881;48.024;8.774;2024-01-16T08:06:54;93204.13;;;-8.67;100.00
51829;BME280;37881;48.024;8.774;2024-01-16T08:09:21;93203.69;;;-7.01;100.00
51829;BME280;37881;48.024;8.774;2024-01-16T08:11:48;93197.97;;;-3.66;100.00
51829;BME280;37881;48.024;8.774;2024-01-16T08:14:15;93204.31;;;-1.04;97.50
51829;BME280;37881;48.024;8.774;2024-01-16T08:16:42;93197.56;;;-0.67;85.65
51829;BME280;37881;48.024;8.774;2024-01-16T08:19:09;93199.75;;;-0.23;67.82
51829;BME280;37881;48.024;8.774;2024-01-16T08:21:36;93182.31;;;0.31;65.08
51829;BME280;37881;48.024;8.774;2024-01-16T08:24:03;93182.09;;;0.85;63.17
51829;BME280;37881;48.024;8.774;2024-01-16T08:26:29;93185.38;;;1.60;56.35
51829;BME280;37881;48.024;8.774;2024-01-16T08:28:57;93185.09;;;2.67;53.85
51829;BME280;37881;48.024;8.774;2024-01-16T08:31:23;93176.63;;;3.94;51.87
51829;BME280;37881;48.024;8.774;2024-01-16T08:33:50;93167.28;;;4.94;48.20
51829;BME280;37881;48.024;8.774;2024-01-16T08:36:20;93168.38;;;5.56;45.36
51829;BME280;37881;48.024;8.774;2024-01-16T08:38:46;93163.72;;;6.02;41.96
51829;BME280;37881;48.024;8.774;2024-01-16T08:41:14;93168.94;;;7.43;39.79
51829;BME280;37881;48.024;8.774;2024-01-16T08:43:40;93168.47;;;7.95;39.08
51829;BME280;37881;48.024;8.774;2024-01-16T08:46:07;93161.09;;;8.16;36.70
51829;BME280;37881;48.024;8.774;2024-01-16T08:48:34;93155.53;;;7.29;37.27
51829;BME280;37881;48.024;8.774;2024-01-16T08:51:03;93165.53;;;6.16;37.87
51829;BME280;37881;48.024;8.774;2024-01-16T08:53:30;93163.47;;;5.37;39.64
51829;BME280;37881;48.024;8.774;2024-01-16T08:55:57;93161.41;;;6.00;38.65
51829;BME280;37881;48.024;8.774;2024-01-16T08:58:24;93168.78;;;5.55;39.47
51829;BME280;37881;48.024;8.774;2024-01-16T09:00:51;93168.06;;;5.96;40.25
51829;BME280;37881;48.024;8.774;2024-01-16T09:03:18;93157.44;;;6.74;38.10
51829;BME280;37881;48.024;8.774;2024-01-16T09:05:45;93154.84;;;6.32;39.10
51829;BME280;37881;48.024;8.774;2024-01-16T09:08:12;93150.09;;;5.57;40.06
51829;BME280;37881;48.024;8.774;2024-01-16T09:10:39;93156.78;;;5.94;39.09
51829;BME280;37881;48.024;8.774;2024-01-16T09:13:06;93162.91;;;6.39;39.02
51829;BME280;37881;48.024;8.774;2024-01-16T09:15:33;93174.31;;;3.93;41.81
51829;BME280;37881;48.024;8.774;2024-01-16T09:18:01;93164.50;;;2.30;44.59
51829;BME280;37881;48.024;8.774;2024-01-16T09:20:28;93164.66;;;1.27;48.11
51829;BME280;37881;48.024;8.774;2024-01-16T09:22:55;93164.53;;;0.64;51.23
51829;BME280;37881;48.024;8.774;2024-01-16T09:25:22;93155.53;;;0.94;51.91
51829;BME280;37881;48.024;8.774;2024-01-16T09:27:51;93155.66;;;1.64;50.92
51829;BME280;37881;48.024;8.774;2024-01-16T09:30:18;93148.72;;;3.79;48.86
51829;BME280;37881;48.024;8.774;2024-01-16T09:32:45;93147.69;;;7.04;40.99
51829;BME280;37881;48.024;8.774;2024-01-16T09:35:12;93145.91;;;4.96;41.69
51829;BME280;37881;48.024;8.774;2024-01-16T09:37:39;93150.78;;;5.68;41.40
51829;BME280;37881;48.024;8.774;2024-01-16T09:40:07;93157.25;;;3.89;44.27
51829;BME280;37881;48.024;8.774;2024-01-16T09:42:34;93150.53;;;5.03;44.09
51829;BME280;37881;48.024;8.774;2024-01-16T09:45:01;93159.66;;;4.64;44.15
51829;BME280;37881;48.024;8.774;2024-01-16T09:47:31;93153.75;;;5.85;42.49
51829;BME280;37881;48.024;8.774;2024-01-16T09:49:59;93151.63;;;2.06;47.28
51829;BME280;37881;48.024;8.774;2024-01-16T09:52:29;93153.06;;;0.78;55.30
51829;BME280;37881;48.024;8.774;2024-01-16T09:54:56;93148.72;;;4.82;48.52
51829;BME280;37881;48.024;8.774;2024-01-16T09:57:25;93149.94;;;7.36;43.13
51829;BME280;37881;48.024;8.774;2024-01-16T09:59:52;93135.72;;;7.72;40.96
51829;BME280;37881;48.024;8.774;2024-01-16T10:02:20;93127.41;;;8.99;36.37
51829;BME280;37881;48.024;8.774;2024-01-16T10:04:49;93134.84;;;7.98;38.09
51829;BME280;37881;48.024;8.774;2024-01-16T10:07:16;93123.19;;;9.14;37.65
51829;BME280;37881;48.024;8.774;2024-01-16T10:09:43;93115.22;;;9.69;34.67
51829;BME280;37881;48.024;8.774;2024-01-16T10:12:10;93118.25;;;11.30;34.62
51829;BME280;37881;48.024;8.774;2024-01-16T10:14:38;93110.69;;;11.09;33.26
51829;BME280;37881;48.024;8.774;2024-01-16T10:17:05;93110.75;;;9.92;35.19
51829;BME280;37881;48.024;8.774;2024-01-16T10:19:33;93114.47;;;12.80;31.94
51829;BME280;37881;48.024;8.774;2024-01-16T10:22:19;93113.31;;;11.12;31.64
51829;BME280;37881;48.024;8.774;2024-01-16T10:25:04;93125.78;;;8.65;35.73
51829;BME280;37881;48.024;8.774;2024-01-16T10:27:31;93123.06;;;8.25;36.69
51829;BME280;37881;48.024;8.774;2024-01-16T10:29:58;93105.97;;;9.63;35.88
51829;BME280;37881;48.024;8.774;2024-01-16T10:32:28;93113.59;;;9.88;35.22
51829;BME280;37881;48.024;8.774;2024-01-16T10:37:29;93093.47;;;10.24;34.47
51829;BME280;37881;48.024;8.774;2024-01-16T10:39:55;93091.22;;;11.29;33.25
51829;BME280;37881;48.024;8.774;2024-01-16T10:42:22;93079.56;;;12.55;31.64
51829;BME280;37881;48.024;8.774;2024-01-16T10:44:53;93077.25;;;11.49;32.55
51829;BME280;37881;48.024;8.774;2024-01-16T10:47:22;93071.59;;;13.32;30.62
51829;BME280;37881;48.024;8.774;2024-01-16T10:49:49;93064.78;;;13.74;30.14
51829;BME280;37881;48.024;8.774;2024-01-16T10:52:17;93064.22;;;14.44;29.33
51829;BME280;37881;48.024;8.774;2024-01-16T10:54:46;93066.41;;;11.93;30.67
51829;BME280;37881;48.024;8.774;2024-01-16T10:57:13;93058.72;;;11.75;31.63
51829;BME280;37881;48.024;8.774;2024-01-16T11:00:19;93057.22;;;12.09;31.04
51829;BME280;37881;48.024;8.774;2024-01-16T11:03:11;93066.19;;;10.04;34.88
51829;BME280;37881;48.024;8.774;2024-01-16T11:05:39;93060.13;;;9.96;34.47
51829;BME280;37881;48.024;8.774;2024-01-16T11:08:08;93064.06;;;9.66;34.83
51829;BME280;37881;48.024;8.774;2024-01-16T11:10:36;93074.25;;;9.16;36.51
51829;BME280;37881;48.024;8.774;2024-01-16T11:13:04;93072.94;;;9.70;35.54
51829;BME280;37881;48.024;8.774;2024-01-16T11:15:31;93073.84;;;7.85;39.96
51829;BME280;37881;48.024;8.774;2024-01-16T11:18:03;93068.00;;;9.94;35.81
51829;BME280;37881;48.024;8.774;2024-01-16T11:20:32;93072.13;;;9.24;36.28
51829;BME280;37881;48.024;8.774;2024-01-16T11:23:21;93065.63;;;11.06;35.60
51829;BME280;37881;48.024;8.774;2024-01-16T11:25:48;93071.06;;;11.70;34.87
51829;BME280;37881;48.024;8.774;2024-01-16T11:28:15;93057.53;;;10.35;34.83
51829;BME280;37881;48.024;8.774;2024-01-16T11:30:42;93051.66;;;8.79;37.91
51829;BME280;37881;48.024;8.774;2024-01-16T11:36:00;93050.44;;;9.92;35.93
51829;BME280;37881;48.024;8.774;2024-01-16T11:38:29;93052.34;;;8.07;38.58
51829;BME280;37881;48.024;8.774;2024-01-16T11:40:56;93036.88;;;9.10;38.71
51829;BME280;37881;48.024;8.774;2024-01-16T11:45:59;93036.03;;;7.60;41.86
51829;BME280;37881;48.024;8.774;2024-01-16T11:48:26;93031.81;;;9.08;39.01
51829;BME280;37881;48.024;8.774;2024-01-16T11:50:54;93038.47;;;8.91;38.86
51829;BME280;37881;48.024;8.774;2024-01-16T12:01:32;93022.59;;;7.02;43.69
51829;BME280;37881;48.024;8.774;2024-01-16T12:04:05;93017.66;;;6.43;43.31
51829;BME280;37881;48.024;8.774;2024-01-16T12:06:34;93008.09;;;8.32;42.15
51829;BME280;37881;48.024;8.774;2024-01-16T12:09:12;93006.31;;;8.06;40.35
51829;BME280;37881;48.024;8.774;2024-01-16T12:11:40;93011.22;;;6.84;43.33
51829;BME280;37881;48.024;8.774;2024-01-16T12:14:09;93003.16;;;8.64;42.56
51829;BME280;37881;48.024;8.774;2024-01-16T12:16:36;92990.84;;;8.35;41.46
51829;BME280;37881;48.024;8.774;2024-01-16T12:19:07;92986.84;;;6.46;44.31
51829;BME280;37881;48.024;8.774;2024-01-16T12:21:45;92991.59;;;7.59;43.77
51829;BME280;37881;48.024;8.774;2024-01-16T12:24:12;92971.94;;;6.54;44.98
51829;BME280;37881;48.024;8.774;2024-01-16T12:26:44;92978.38;;;7.14;44.55
51829;BME280;37881;48.024;8.774;2024-01-16T12:29:11;92970.28;;;4.57;49.88
51829;BME280;37881;48.024;8.774;2024-01-16T12:31:38;92972.53;;;3.26;55.82
51829;BME280;37881;48.024;8.774;2024-01-16T12:34:08;92980.00;;;2.17;71.79
51829;BME280;37881;48.024;8.774;2024-01-16T12:36:37;92964.31;;;1.32;88.22
51829;BME280;37881;48.024;8.774;2024-01-16T12:39:04;92960.06;;;1.34;91.66
51829;BME280;37881;48.024;8.774;2024-01-16T12:41:35;92961.59;;;0.58;95.52
51829;BME280;37881;48.024;8.774;2024-01-16T12:44:08;92953.50;;;0.62;97.43
51829;BME280;37881;48.024;8.774;2024-01-16T12:47:01;92956.88;;;0.45;100.00
51829;BME280;37881;48.024;8.774;2024-01-16T12:49:29;92959.22;;;0.50;100.00
51829;BME280;37881;48.024;8.774;2024-01-16T12:52:18;92951.22;;;0.61;99.77
51829;BME280;37881;48.024;8.774;2024-01-16T12:54:47;92949.34;;;0.72;100.00
51829;BME280;37881;48.024;8.774;2024-01-16T12:57:19;92938.66;;;0.31;100.00
51829;BME280;37881;48.024;8.774;2024-01-16T12:59:48;92941.84;;;0.47;100.00
51829;BME280;37881;48.024;8.774;2024-01-16T13:02:23;92939.56;;;0.49;100.00
51829;BME280;37881;48.024;8.774;2024-01-16T13:04:58;92928.31;;;0.44;100.00
51829;BME280;37881;48.024;8.774;2024-01-16T13:07:26;92928.38;;;-0.01;100.00
51829;BME280;37881;48.024;8.774;2024-01-16T13:10:12;92928.06;;;0.08;100.00
51829;BME280;37881;48.024;8.774;2024-01-16T13:12:42;92936.66;;;0.24;100.00
51829;BME280;37881;48.024;8.774;2024-01-16T13:15:09;92934.53;;;0.48;100.00
51829;BME280;37881;48.024;8.774;2024-01-16T13:17:37;92938.13;;;0.11;100.00